sensor_id;sensor_type;location;lat;lon;timestamp;temperature;humidity
10386;DHT22;34307;51.332;12.334;2022-08-30T02:33:58;14.80;99.90
10386;DHT22;34307;51.332;12.334;2022-08-30T02:40:54;14.70;99.90
10386;DHT22;34307;51.332;12.334;2022-08-30T03:45:27;14.30;99.90
10386;DHT22;34307;51.332;12.334;2022-08-30T03:48:41;14.40;99.90
10386;DHT22;34307;51.332;12.334;2022-08-30T03:51:50;14.30;99.90
10386;DHT22;34307;51.332;12.334;2022-08-30T03:58:43;14.10;99.90
10386;DHT22;34307;51.332;12.334;2022-08-30T04:01:51;14.10;99.90
10386;DHT22;34307;51.332;12.334;2022-08-30T04:04:50;14.20;99.90
10386;DHT22;34307;51.332;12.334;2022-08-30T04:08:00;14.10;99.90
10386;DHT22;34307;51.332;12.334;2022-08-30T04:10:54;14.10;99.90
10386;DHT22;34307;51.332;12.334;2022-08-30T04:13:54;14.00;99.90
10386;DHT22;34307;51.332;12.334;2022-08-30T04:24:54;14.10;99.90
10386;DHT22;34307;51.332;12.334;2022-08-30T04:28:01;14.00;99.90
10386;DHT22;34307;51.332;12.334;2022-08-30T04:34:22;13.90;99.90
10386;DHT22;34307;51.332;12.334;2022-08-30T04:38:58;13.90;99.90
10386;DHT22;34307;51.332;12.334;2022-08-30T05:08:48;14.40;99.90
10386;DHT22;34307;51.332;12.334;2022-08-30T05:11:52;14.40;99.90
10386;DHT22;34307;51.332;12.334;2022-08-30T05:18:35;14.20;99.90
10386;DHT22;34307;51.332;12.334;2022-08-30T05:21:26;14.30;99.90
10386;DHT22;34307;51.332;12.334;2022-08-30T05:24:22;14.30;99.90
10386;DHT22;34307;51.332;12.334;2022-08-30T05:27:21;14.40;99.90
10386;DHT22;34307;51.332;12.334;2022-08-30T05:30:19;14.40;99.90
10386;DHT22;34307;51.332;12.334;2022-08-30T05:33:19;14.50;99.90
10386;DHT22;34307;51.332;12.334;2022-08-30T05:39:19;14.60;99.90
10386;DHT22;34307;51.332;12.334;2022-08-30T05:42:31;14.60;99.90
10386;DHT22;34307;51.332;12.334;2022-08-30T05:45:37;14.60;99.90
10386;DHT22;34307;51.332;12.334;2022-08-30T05:48:35;14.70;99.90
10386;DHT22;34307;51.332;12.334;2022-08-30T05:51:47;14.70;99.90
10386;DHT22;34307;51.332;12.334;2022-08-30T05:54:54;14.70;99.90
10386;DHT22;34307;51.332;12.334;2022-08-30T05:57:46;14.80;99.90
10386;DHT22;34307;51.332;12.334;2022-08-30T06:00:19;14.90;99.90
10386;DHT22;34307;51.332;12.334;2022-08-30T06:03:07;14.90;99.90
10386;DHT22;34307;51.332;12.334;2022-08-30T06:06:19;15.00;99.90
10386;DHT22;34307;51.332;12.334;2022-08-30T06:09:13;15.10;99.90
10386;DHT22;34307;51.332;12.334;2022-08-30T06:12:22;15.10;99.90
10386;DHT22;34307;51.332;12.334;2022-08-30T06:15:10;15.20;99.90
10386;DHT22;34307;51.332;12.334;2022-08-30T06:18:00;15.20;99.90
10386;DHT22;34307;51.332;12.334;2022-08-30T06:21:20;15.30;99.90
10386;DHT22;34307;51.332;12.334;2022-08-30T06:24:14;15.30;99.90
10386;DHT22;34307;51.332;12.334;2022-08-30T06:27:39;15.40;99.90
10386;DHT22;34307;51.332;12.334;2022-08-30T06:30:35;15.50;99.90
10386;DHT22;34307;51.332;12.334;2022-08-30T06:33:33;15.50;99.90
10386;DHT22;34307;51.332;12.334;2022-08-30T06:36:18;15.60;99.90
10386;DHT22;34307;51.332;12.334;2022-08-30T06:39:13;15.60;99.90
10386;DHT22;34307;51.332;12.334;2022-08-30T06:42:48;15.70;99.90
10386;DHT22;34307;51.332;12.334;2022-08-30T06:45:34;15.70;99.90
10386;DHT22;34307;51.332;12.334;2022-08-30T06:49:06;15.80;99.90
10386;DHT22;34307;51.332;12.334;2022-08-30T06:51:53;15.90;99.90
10386;DHT22;34307;51.332;12.334;2022-08-30T06:54:59;16.00;99.90
10386;DHT22;34307;51.332;12.334;2022-08-30T06:57:55;16.10;99.90
10386;DHT22;34307;51.332;12.334;2022-08-30T07:00:47;16.20;99.90
10386;DHT22;34307;51.332;12.334;2022-08-30T07:03:37;16.30;99.90
10386;DHT22;34307;51.332;12.334;2022-08-30T07:06:40;16.40;99.90
10386;DHT22;34307;51.332;12.334;2022-08-30T07:09:40;16.40;99.90
10386;DHT22;34307;51.332;12.334;2022-08-30T07:12:48;16.50;99.90
10386;DHT22;34307;51.332;12.334;2022-08-30T07:19:04;16.40;99.90
10386;DHT22;34307;51.332;12.334;2022-08-30T07:32:04;16.90;99.90
10386;DHT22;34307;51.332;12.334;2022-08-30T07:35:03;17.20;99.90
10386;DHT22;34307;51.332;12.334;2022-08-30T07:38:26;17.30;99.90
10386;DHT22;34307;51.332;12.334;2022-08-30T07:41:52;17.40;99.90
10386;DHT22;34307;51.332;12.334;2022-08-30T07:48:07;17.40;99.90
10386;DHT22;34307;51.332;12.334;2022-08-30T08:13:31;18.40;99.90
10386;DHT22;34307;51.332;12.334;2022-08-30T08:16:24;18.50;99.90
10386;DHT22;34307;51.332;12.334;2022-08-30T08:19:18;18.70;99.90
10386;DHT22;34307;51.332;12.334;2022-08-30T08:22:36;18.80;99.90
10386;DHT22;34307;51.332;12.334;2022-08-30T08:26:03;18.70;99.90
10386;DHT22;34307;51.332;12.334;2022-08-30T08:51:37;19.90;99.90
10386;DHT22;34307;51.332;12.334;2022-08-30T08:54:58;20.10;99.90
10386;DHT22;34307;51.332;12.334;2022-08-30T08:58:20;20.40;99.90
10386;DHT22;34307;51.332;12.334;2022-08-30T09:01:05;20.20;99.90
10386;DHT22;34307;51.332;12.334;2022-08-30T09:04:30;20.40;99.90
10386;DHT22;34307;51.332;12.334;2022-08-30T09:08:14;20.50;99.90
10386;DHT22;34307;51.332;12.334;2022-08-30T09:10:57;20.70;99.90
10386;DHT22;34307;51.332;12.334;2022-08-30T09:13:51;20.50;99.90
10386;DHT22;34307;51.332;12.334;2022-08-30T09:17:02;20.60;99.90
10386;DHT22;34307;51.332;12.334;2022-08-30T09:20:01;20.90;99.90
10386;DHT22;34307;51.332;12.334;2022-08-30T09:23:55;20.90;96.30
10386;DHT22;34307;51.332;12.334;2022-08-30T09:26:02;20.80;96.30
10386;DHT22;34307;51.332;12.334;2022-08-30T09:29:01;20.90;99.80
10386;DHT22;34307;51.332;12.334;2022-08-30T09:32:01;21.10;96.70
10386;DHT22;34307;51.332;12.334;2022-08-30T09:35:00;21.30;92.10
10386;DHT22;34307;51.332;12.334;2022-08-30T09:37:51;21.60;92.50
10386;DHT22;34307;51.332;12.334;2022-08-30T09:40:54;21.90;81.70
10386;DHT22;34307;51.332;12.334;2022-08-30T09:43:44;21.90;79.30
10386;DHT22;34307;51.332;12.334;2022-08-30T09:46:59;22.00;77.30
10386;DHT22;34307;51.332;12.334;2022-08-30T09:50:10;22.10;74.30
10386;DHT22;34307;51.332;12.334;2022-08-30T09:56:13;22.00;73.30
10386;DHT22;34307;51.332;12.334;2022-08-30T09:59:41;22.20;71.10
10386;DHT22;34307;51.332;12.334;2022-08-30T10:02:42;22.30;76.00
10386;DHT22;34307;51.332;12.334;2022-08-30T10:05:48;22.20;71.20
10386;DHT22;34307;51.332;12.334;2022-08-30T10:09:22;22.00;77.30
10386;DHT22;34307;51.332;12.334;2022-08-30T10:12:45;21.90;76.10
10386;DHT22;34307;51.332;12.334;2022-08-30T10:15:28;22.00;82.50
10386;DHT22;34307;51.332;12.334;2022-08-30T10:18:30;22.00;87.60
10386;DHT22;34307;51.332;12.334;2022-08-30T10:21:32;22.00;87.70
10386;DHT22;34307;51.332;12.334;2022-08-30T10:24:22;22.00;90.80
10386;DHT22;34307;51.332;12.334;2022-08-30T10:27:40;22.00;94.10
10386;DHT22;34307;51.332;12.334;2022-08-30T10:30:54;22.10;92.70
10386;DHT22;34307;51.332;12.334;2022-08-30T10:33:57;21.90;93.80
10386;DHT22;34307;51.332;12.334;2022-08-30T10:36:43;21.90;96.30
10386;DHT22;34307;51.332;12.334;2022-08-30T10:39:57;22.10;90.70
10386;DHT22;34307;51.332;12.334;2022-08-30T10:43:12;22.40;76.50
10386;DHT22;34307;51.332;12.334;2022-08-30T10:46:06;22.20;86.70
10386;DHT22;34307;51.332;12.334;2022-08-30T10:49:17;22.80;77.40
10386;DHT22;34307;51.332;12.334;2022-08-30T10:52:20;23.60;65.10
10386;DHT22;34307;51.332;12.334;2022-08-30T10:55:27;24.00;58.90
10386;DHT22;34307;51.332;12.334;2022-08-30T10:58:28;24.50;51.40
10386;DHT22;34307;51.332;12.334;2022-08-30T11:01:42;23.80;51.00
10386;DHT22;34307;51.332;12.334;2022-08-30T11:07:58;23.30;50.00
10386;DHT22;34307;51.332;12.334;2022-08-30T11:11:05;23.50;50.50
10386;DHT22;34307;51.332;12.334;2022-08-30T11:14:16;24.30;48.80
10386;DHT22;34307;51.332;12.334;2022-08-30T11:17:11;25.00;41.00
10386;DHT22;34307;51.332;12.334;2022-08-30T11:20:23;24.80;36.80
10386;DHT22;34307;51.332;12.334;2022-08-30T11:23:46;24.50;38.40
10386;DHT22;34307;51.332;12.334;2022-08-30T11:27:01;24.10;41.10
10386;DHT22;34307;51.332;12.334;2022-08-30T11:33:45;24.50;41.90
10386;DHT22;34307;51.332;12.334;2022-08-30T11:37:08;25.40;33.20
10386;DHT22;34307;51.332;12.334;2022-08-30T11:44:17;26.10;17.10
10386;DHT22;34307;51.332;12.334;2022-08-30T11:47:51;24.30;22.50
10386;DHT22;34307;51.332;12.334;2022-08-30T11:51:17;24.30;30.90
10386;DHT22;34307;51.332;12.334;2022-08-30T11:54:30;24.20;28.30
10386;DHT22;34307;51.332;12.334;2022-08-30T11:58:14;24.60;28.30
10386;DHT22;34307;51.332;12.334;2022-08-30T12:04:41;24.20;39.20
10386;DHT22;34307;51.332;12.334;2022-08-30T12:08:00;25.30;36.50
10386;DHT22;34307;51.332;12.334;2022-08-30T12:15:09;24.90;31.50
10386;DHT22;34307;51.332;12.334;2022-08-30T12:18:36;24.80;30.30
10386;DHT22;34307;51.332;12.334;2022-08-30T12:21:41;24.90;31.80
10386;DHT22;34307;51.332;12.334;2022-08-30T12:24:40;24.90;34.80
10386;DHT22;34307;51.332;12.334;2022-08-30T12:27:50;24.90;28.50
10386;DHT22;34307;51.332;12.334;2022-08-30T12:30:50;24.80;28.70
10386;DHT22;34307;51.332;12.334;2022-08-30T12:33:40;24.50;35.80
10386;DHT22;34307;51.332;12.334;2022-08-30T12:36:15;23.80;45.70
10386;DHT22;34307;51.332;12.334;2022-08-30T12:42:48;23.10;58.70
10386;DHT22;34307;51.332;12.334;2022-08-30T12:45:47;23.10;57.80
10386;DHT22;34307;51.332;12.334;2022-08-30T12:48:18;22.90;60.40
10386;DHT22;34307;51.332;12.334;2022-08-30T12:50:51;22.90;62.70
10386;DHT22;34307;51.332;12.334;2022-08-30T12:53:26;22.90;57.50
10386;DHT22;34307;51.332;12.334;2022-08-30T12:55:59;22.90;56.30
10386;DHT22;34307;51.332;12.334;2022-08-30T12:58:42;23.00;53.90
10386;DHT22;34307;51.332;12.334;2022-08-30T13:01:23;22.90;56.20
10386;DHT22;34307;51.332;12.334;2022-08-30T13:04:01;23.10;56.70
10386;DHT22;34307;51.332;12.334;2022-08-30T13:06:41;23.30;54.70
10386;DHT22;34307;51.332;12.334;2022-08-30T13:09:22;23.30;56.50
10386;DHT22;34307;51.332;12.334;2022-08-30T13:12:01;23.40;56.70
10386;DHT22;34307;51.332;12.334;2022-08-30T13:14:35;23.60;55.60
10386;DHT22;34307;51.332;12.334;2022-08-30T13:17:21;23.80;55.80
10386;DHT22;34307;51.332;12.334;2022-08-30T13:20:00;23.90;55.40
10386;DHT22;34307;51.332;12.334;2022-08-30T13:22:34;23.80;52.60
10386;DHT22;34307;51.332;12.334;2022-08-30T13:50:15;23.70;56.40
10386;DHT22;34307;51.332;12.334;2022-08-30T14:46:25;25.40;17.60
10386;DHT22;34307;51.332;12.334;2022-08-30T14:56:08;24.70;33.80
10386;DHT22;34307;51.332;12.334;2022-08-30T14:59:27;24.40;37.60
10386;DHT22;34307;51.332;12.334;2022-08-30T15:02:22;24.10;40.10
10386;DHT22;34307;51.332;12.334;2022-08-30T16:00:40;22.90;52.50
10386;DHT22;34307;51.332;12.334;2022-08-30T16:44:29;28.90;1.00
10386;DHT22;34307;51.332;12.334;2022-08-30T16:47:32;28.40;1.00
10386;DHT22;34307;51.332;12.334;2022-08-30T17:01:00;27.80;1.00
10386;DHT22;34307;51.332;12.334;2022-08-30T17:04:32;27.70;1.00
10386;DHT22;34307;51.332;12.334;2022-08-30T17:08:18;27.60;1.00
10386;DHT22;34307;51.332;12.334;2022-08-30T17:11:09;27.80;1.00
10386;DHT22;34307;51.332;12.334;2022-08-30T17:15:29;28.10;1.00
10386;DHT22;34307;51.332;12.334;2022-08-30T18:41:21;19.80;92.70
10386;DHT22;34307;51.332;12.334;2022-08-30T18:45:03;19.70;93.40
10386;DHT22;34307;51.332;12.334;2022-08-30T18:52:55;19.50;97.70
10386;DHT22;34307;51.332;12.334;2022-08-30T19:46:54;18.50;99.90
10386;DHT22;34307;51.332;12.334;2022-08-30T19:49:38;18.50;99.90
10386;DHT22;34307;51.332;12.334;2022-08-30T19:52:34;18.50;99.90
10386;DHT22;34307;51.332;12.334;2022-08-30T19:55:23;18.40;99.90
10386;DHT22;34307;51.332;12.334;2022-08-30T19:58:13;18.40;99.90
10386;DHT22;34307;51.332;12.334;2022-08-30T20:00:54;18.30;99.90
10386;DHT22;34307;51.332;12.334;2022-08-30T20:03:48;18.30;99.90
10386;DHT22;34307;51.332;12.334;2022-08-30T20:06:32;18.30;99.90
10386;DHT22;34307;51.332;12.334;2022-08-30T20:09:04;18.30;99.90
10386;DHT22;34307;51.332;12.334;2022-08-30T20:12:01;18.20;99.90
10386;DHT22;34307;51.332;12.334;2022-08-30T20:27:08;17.80;99.90
10386;DHT22;34307;51.332;12.334;2022-08-30T20:29:47;17.80;99.90
10386;DHT22;34307;51.332;12.334;2022-08-30T20:32:32;17.80;99.90
10386;DHT22;34307;51.332;12.334;2022-08-30T20:39:24;17.70;99.90
10386;DHT22;34307;51.332;12.334;2022-08-30T20:42:27;17.70;99.90
10386;DHT22;34307;51.332;12.334;2022-08-30T20:45:19;17.60;99.90
10386;DHT22;34307;51.332;12.334;2022-08-30T20:48:12;17.50;99.90
10386;DHT22;34307;51.332;12.334;2022-08-30T20:51:01;17.50;99.90
10386;DHT22;34307;51.332;12.334;2022-08-30T20:53:38;17.40;99.90
10386;DHT22;34307;51.332;12.334;2022-08-30T20:56:20;17.40;99.90
10386;DHT22;34307;51.332;12.334;2022-08-30T20:59:15;17.40;99.90
10386;DHT22;34307;51.332;12.334;2022-08-30T21:02:10;17.30;99.90
10386;DHT22;34307;51.332;12.334;2022-08-30T21:05:08;17.20;99.90
10386;DHT22;34307;51.332;12.334;2022-08-30T21:07:55;17.20;99.90
10386;DHT22;34307;51.332;12.334;2022-08-30T21:10:45;17.10;99.90
10386;DHT22;34307;51.332;12.334;2022-08-30T21:13:29;17.10;99.90
10386;DHT22;34307;51.332;12.334;2022-08-30T21:16:34;17.00;99.90
10386;DHT22;34307;51.332;12.334;2022-08-30T21:19:32;17.00;99.90
10386;DHT22;34307;51.332;12.334;2022-08-30T21:22:10;16.90;99.90
10386;DHT22;34307;51.332;12.334;2022-08-30T21:25:16;16.90;99.90
10386;DHT22;34307;51.332;12.334;2022-08-30T21:34:43;16.90;99.90
10386;DHT22;34307;51.332;12.334;2022-08-30T21:37:35;16.90;99.90
10386;DHT22;34307;51.332;12.334;2022-08-30T21:40:17;16.80;99.90
10386;DHT22;34307;51.332;12.334;2022-08-30T21:43:06;16.70;99.90
10386;DHT22;34307;51.332;12.334;2022-08-30T21:45:47;16.80;99.90
10386;DHT22;34307;51.332;12.334;2022-08-30T21:48:25;16.70;99.90
10386;DHT22;34307;51.332;12.334;2022-08-30T21:51:10;16.70;99.90
10386;DHT22;34307;51.332;12.334;2022-08-30T21:53:57;16.70;99.90
10386;DHT22;34307;51.332;12.334;2022-08-30T22:08:34;16.60;99.90
10386;DHT22;34307;51.332;12.334;2022-08-30T22:11:46;16.60;99.90
10386;DHT22;34307;51.332;12.334;2022-08-30T22:14:35;16.50;99.90
10386;DHT22;34307;51.332;12.334;2022-08-30T22:17:12;16.40;99.90
10386;DHT22;34307;51.332;12.334;2022-08-30T22:19:54;16.40;99.90
10386;DHT22;34307;51.332;12.334;2022-08-30T22:22:38;16.40;99.90
10386;DHT22;34307;51.332;12.334;2022-08-30T22:25:42;16.40;99.90
10386;DHT22;34307;51.332;12.334;2022-08-30T22:36:21;16.30;99.90
10386;DHT22;34307;51.332;12.334;2022-08-30T22:39:28;16.20;99.90
10386;DHT22;34307;51.332;12.334;2022-08-30T22:42:08;16.20;99.90
10386;DHT22;34307;51.332;12.334;2022-08-30T22:44:55;16.20;99.90
10386;DHT22;34307;51.332;12.334;2022-08-30T22:48:46;16.10;99.90
10386;DHT22;34307;51.332;12.334;2022-08-30T22:52:21;16.10;99.90
10386;DHT22;34307;51.332;12.334;2022-08-30T22:59:42;16.00;99.90
10386;DHT22;34307;51.332;12.334;2022-08-30T23:02:30;16.00;99.90
10386;DHT22;34307;51.332;12.334;2022-08-30T23:05:25;15.90;99.90
10386;DHT22;34307;51.332;12.334;2022-08-30T23:12:34;15.90;99.90
10386;DHT22;34307;51.332;12.334;2022-08-30T23:15:02;15.90;99.90
10386;DHT22;34307;51.332;12.334;2022-08-30T23:17:53;15.90;99.90
10386;DHT22;34307;51.332;12.334;2022-08-30T23:20:36;15.90;99.90
10386;DHT22;34307;51.332;12.334;2022-08-30T23:23:22;15.80;99.90
10386;DHT22;34307;51.332;12.334;2022-08-30T23:30:15;15.80;99.90
10386;DHT22;34307;51.332;12.334;2022-08-30T23:33:49;15.80;99.90
10386;DHT22;34307;51.332;12.334;2022-08-30T23:37:16;15.80;99.90
10386;DHT22;34307;51.332;12.334;2022-08-30T23:40:37;15.80;99.90
10386;DHT22;34307;51.332;12.334;2022-08-30T23:43:38;15.80;99.90
10386;DHT22;34307;51.332;12.334;2022-08-30T23:50:28;15.70;99.90
10386;DHT22;34307;51.332;12.334;2022-08-30T23:53:32;15.80;99.90
10386;DHT22;34307;51.332;12.334;2022-08-30T23:56:26;15.80;99.90
10386;DHT22;34307;51.332;12.334;2022-08-30T23:59:15;15.80;99.90
